Terminal Aerodrome Forecast
Issued by NWS

Home | Current Version | Previous Version | Text Only | Print | Product List | Glossary On
Versions: 1 2 3 4 5 6 7 8 9 10 11 12 13 14 15 16 17 18 19 20 21
000
FTUS43 KDLH 281100 RRA
TAFBRD
TAF
KBRD 281142Z 2812/2912 18005KT P6SM SKC
     FM281600 18012G20KT P6SM SCT200
     FM290000 18012KT P6SM SCT050 BKN100
     FM290300 19012KT P6SM SCT030 BKN060 WS020/19045KT
     FM290800 19014KT P6SM -RA BKN020 OVC040 WS020/21045KT=

USA.gov is the U.S. government's official web portal to all federal, state and local government web resources and services.